Time;durP1;ratioP1;P1;durP2;ratioP2;P2;SDS_P1;SDS_P2;PMS_P1;PMS_P2;Temp;Humidity;BMP_temperature;BMP_pressure;BME280_temperature;BME280_humidity;BME280_pressure;Samples;Min_cycle;Max_cycle;Signal;HPM_P1;HPM_P2
2022/08/20 00:01:45;;;;;;;16.38;6.03;;;;;;;;;;4993446;28;20026;-73
2022/08/20 00:04:11;;;;;;;14.10;5.97;;;;;;;;;;4994261;28;20443;-73
2022/08/20 00:06:39;;;;;;;11.75;5.95;;;;;;;;;;4993025;28;20472;-73
2022/08/20 00:09:05;;;;;;;13.88;5.95;;;;;;;;;;4993661;28;20039;-73
2022/08/20 00:11:35;;;;;;;18.13;5.80;;;;;;;;;;4992742;28;20089;-73
2022/08/20 00:14:02;;;;;;;15.38;5.85;;;;;;;;;;4994428;28;20088;-73
2022/08/20 00:16:31;;;;;;;14.07;5.50;;;;;;;;;;4993956;28;20031;-73
2022/08/20 00:18:58;;;;;;;15.70;6.07;;;;;;;;;;4991945;28;20022;-73
2022/08/20 00:21:24;;;;;;;19.63;6.18;;;;;;;;;;4994048;28;20041;-73
2022/08/20 00:23:52;;;;;;;14.10;5.55;;;;;;;;;;4990132;28;20023;-73
2022/08/20 00:26:18;;;;;;;13.85;6.22;;;;;;;;;;4992304;28;20054;-73
2022/08/20 00:28:44;;;;;;;19.10;6.55;;;;;;;;;;4992729;28;20034;-73
2022/08/20 00:31:11;;;;;;;14.70;6.38;;;;;;;;;;4993718;28;20065;-73
2022/08/20 00:33:38;;;;;;;15.20;6.93;;;;;;;;;;4993834;28;20035;-74
2022/08/20 00:36:08;;;;;;;19.73;6.65;;;;;;;;;;4993821;28;20419;-73
2022/08/20 00:38:35;;;;;;;16.10;7.20;;;;;;;;;;4993173;28;20022;-73
2022/08/20 00:41:01;;;;;;;12.77;8.38;;;;;;;;;;4991907;28;20036;-73
2022/08/20 00:43:39;;;;;;;19.85;7.45;;;;;;;;;;4994075;28;20034;-74
2022/08/20 00:46:07;;;;;;;17.08;7.80;;;;;;;;;;4990561;28;20109;-74
2022/08/20 00:48:34;;;;;;;22.20;8.90;;;;;;;;;;4992258;28;20051;-74
2022/08/20 00:51:04;;;;;;;21.45;9.10;;;;;;;;;;4989113;28;20113;-74
2022/08/20 00:53:31;;;;;;;19.48;9.57;;;;;;;;;;4989163;28;20034;-74
2022/08/20 00:55:57;;;;;;;15.80;9.25;;;;;;;;;;4991492;28;20105;-74
2022/08/20 00:58:24;;;;;;;18.33;10.23;;;;;;;;;;4978552;28;20440;-74
2022/08/20 01:00:50;;;;;;;23.60;11.00;;;;;;;;;;4992252;28;20026;-74
2022/08/20 01:03:19;;;;;;;16.90;9.85;;;;;;;;;;4991991;28;20026;-74
2022/08/20 01:05:47;;;;;;;19.58;11.05;;;;;;;;;;4991030;28;20025;-74
2022/08/20 01:08:15;;;;;;;19.45;11.65;;;;;;;;;;4992875;28;20019;-74
2022/08/20 01:10:43;;;;;;;22.60;12.82;;;;;;;;;;4992197;28;20041;-73
2022/08/20 01:13:12;;;;;;;20.15;11.95;;;;;;;;;;4992350;28;20019;-74
2022/08/20 01:15:40;;;;;;;31.42;12.38;;;;;;;;;;4993287;28;20031;-73
2022/08/20 01:18:09;;;;;;;19.52;10.77;;;;;;;;;;4992569;28;20054;-74
2022/08/20 01:20:40;;;;;;;22.80;11.43;;;;;;;;;;4992991;28;20035;-73
2022/08/20 01:23:31;;;;;;;21.48;11.07;;;;;;;;;;4991119;28;20477;-73
2022/08/20 01:26:09;;;;;;;19.52;11.25;;;;;;;;;;4981526;28;20031;-73
2022/08/20 01:28:35;;;;;;;29.58;11.05;;;;;;;;;;4993039;28;20038;-74
2022/08/20 01:31:02;;;;;;;22.70;11.68;;;;;;;;;;4991783;28;20033;-74
2022/08/20 01:33:28;;;;;;;20.17;10.35;;;;;;;;;;4990986;28;20037;-74
2022/08/20 01:35:54;;;;;;;23.15;10.75;;;;;;;;;;4992828;28;20385;-74
2022/08/20 01:38:21;;;;;;;18.50;11.07;;;;;;;;;;4992803;28;20033;-74
2022/08/20 01:40:47;;;;;;;21.02;11.73;;;;;;;;;;4992819;28;20022;-74
2022/08/20 01:43:13;;;;;;;18.38;10.93;;;;;;;;;;4991168;28;20041;-73
2022/08/20 01:45:39;;;;;;;22.25;10.50;;;;;;;;;;4990041;28;20109;-74
2022/08/20 01:48:05;;;;;;;23.77;12.07;;;;;;;;;;5002108;28;20046;-73
2022/08/20 01:50:32;;;;;;;23.02;11.35;;;;;;;;;;5002085;28;20034;-74
2022/08/20 01:53:06;;;;;;;21.33;11.15;;;;;;;;;;5009027;28;20361;-74
2022/08/20 01:55:32;;;;;;;20.55;11.45;;;;;;;;;;4995821;28;20033;-73
2022/08/20 01:57:59;;;;;;;23.88;11.95;;;;;;;;;;4998350;28;20185;-73
2022/08/20 02:00:26;;;;;;;17.88;10.93;;;;;;;;;;4992732;28;20377;-73
2022/08/20 02:02:52;;;;;;;18.88;10.85;;;;;;;;;;4992459;28;20026;-72
2022/08/20 02:05:19;;;;;;;21.42;11.23;;;;;;;;;;4995324;28;20032;-73
2022/08/20 02:07:45;;;;;;;22.10;10.88;;;;;;;;;;5008886;28;20030;-73
2022/08/20 02:10:13;;;;;;;23.85;13.98;;;;;;;;;;5016005;28;20045;-73
2022/08/20 02:12:39;;;;;;;21.92;12.02;;;;;;;;;;5016030;28;20361;-74
2022/08/20 02:15:07;;;;;;;21.00;11.45;;;;;;;;;;5010970;28;20121;-72
2022/08/20 02:17:33;;;;;;;20.45;10.90;;;;;;;;;;4994811;28;20081;-72
2022/08/20 02:20:20;;;;;;;19.38;10.45;;;;;;;;;;5011983;28;20062;-73
2022/08/20 02:22:51;;;;;;;20.17;9.95;;;;;;;;;;4989662;28;20076;-73
2022/08/20 02:25:18;;;;;;;21.73;10.07;;;;;;;;;;5010656;28;20076;-72
2022/08/20 02:27:47;;;;;;;18.15;10.15;;;;;;;;;;4997110;28;20098;-73
2022/08/20 02:30:19;;;;;;;20.17;9.98;;;;;;;;;;5009579;28;20045;-74
2022/08/20 02:32:45;;;;;;;21.58;10.90;;;;;;;;;;5004181;28;20034;-73
2022/08/20 02:35:12;;;;;;;17.83;10.48;;;;;;;;;;5013812;28;20117;-73
2022/08/20 02:37:39;;;;;;;15.82;9.15;;;;;;;;;;5006390;28;20471;-73
2022/08/20 02:40:06;;;;;;;15.82;9.15;;;;;;;;;;5002663;28;20519;-74
2022/08/20 02:42:33;;;;;;;18.10;9.27;;;;;;;;;;5002863;28;20719;-73
2022/08/20 02:44:59;;;;;;;20.30;9.20;;;;;;;;;;5008052;28;20030;-74
2022/08/20 02:47:26;;;;;;;16.83;9.48;;;;;;;;;;5009524;28;20451;-72
2022/08/20 02:49:53;;;;;;;19.40;9.35;;;;;;;;;;4999348;28;20041;-73
2022/08/20 02:52:19;;;;;;;18.85;9.68;;;;;;;;;;5010754;28;20097;-72
2022/08/20 02:54:46;;;;;;;18.23;9.45;;;;;;;;;;4997864;28;20021;-74
2022/08/20 02:57:19;;;;;;;22.35;9.07;;;;;;;;;;5009912;28;20357;-72
2022/08/20 02:59:45;;;;;;;20.20;10.15;;;;;;;;;;4997590;28;20026;-73
2022/08/20 03:02:11;;;;;;;19.98;9.65;;;;;;;;;;5010116;28;20018;-73
2022/08/20 03:04:37;;;;;;;21.17;9.63;;;;;;;;;;5015003;28;20026;-73
2022/08/20 03:07:04;;;;;;;21.77;10.60;;;;;;;;;;5007715;28;20380;-73
2022/08/20 03:09:30;;;;;;;22.50;10.48;;;;;;;;;;4995399;28;20038;-73
2022/08/20 03:11:56;;;;;;;19.45;9.75;;;;;;;;;;5000668;28;20032;-73
2022/08/20 03:14:22;;;;;;;17.88;10.20;;;;;;;;;;5014467;28;20029;-73
2022/08/20 03:16:48;;;;;;;18.73;9.63;;;;;;;;;;5004755;28;20026;-73
2022/08/20 03:19:14;;;;;;;21.75;9.48;;;;;;;;;;5009226;28;20027;-72
2022/08/20 03:21:41;;;;;;;22.08;9.55;;;;;;;;;;4995269;28;20118;-73
2022/08/20 03:24:07;;;;;;;19.23;9.38;;;;;;;;;;5011039;28;20014;-73
2022/08/20 03:26:33;;;;;;;23.10;9.18;;;;;;;;;;4997105;28;20145;-73
2022/08/20 03:28:59;;;;;;;20.48;9.13;;;;;;;;;;5014574;28;20120;-73
2022/08/20 03:31:25;;;;;;;19.48;8.95;;;;;;;;;;5003783;28;20034;-73
2022/08/20 03:33:51;;;;;;;19.33;9.45;;;;;;;;;;5012764;28;20018;-73
2022/08/20 03:36:18;;;;;;;19.17;9.32;;;;;;;;;;4988952;28;20026;-73
2022/08/20 03:38:44;;;;;;;22.05;9.48;;;;;;;;;;5012532;28;20029;-74
2022/08/20 03:41:10;;;;;;;16.77;8.48;;;;;;;;;;4994234;28;20026;-73
2022/08/20 03:43:36;;;;;;;16.92;8.38;;;;;;;;;;5008315;28;20036;-73
2022/08/20 03:46:03;;;;;;;21.25;9.82;;;;;;;;;;5008207;28;20097;-72
2022/08/20 03:48:29;;;;;;;22.63;9.68;;;;;;;;;;4994129;28;20057;-73
2022/08/20 03:50:57;;;;;;;22.42;9.75;;;;;;;;;;4993778;28;20126;-72
2022/08/20 03:53:23;;;;;;;22.85;9.45;;;;;;;;;;4990364;28;20025;-73
2022/08/20 03:55:53;;;;;;;18.35;9.80;;;;;;;;;;4993473;28;20172;-72
2022/08/20 03:58:19;;;;;;;19.75;9.98;;;;;;;;;;4990599;28;20068;-73
2022/08/20 04:00:47;;;;;;;20.13;10.63;;;;;;;;;;4993846;28;20022;-73
2022/08/20 04:03:14;;;;;;;20.17;10.55;;;;;;;;;;4991991;28;20022;-73
2022/08/20 04:05:40;;;;;;;21.48;10.07;;;;;;;;;;4993964;28;20077;-74
2022/08/20 04:08:08;;;;;;;22.92;10.60;;;;;;;;;;4993997;28;20032;-73
2022/08/20 04:10:34;;;;;;;21.88;10.40;;;;;;;;;;4992548;28;20466;-73
2022/08/20 04:13:00;;;;;;;18.45;10.57;;;;;;;;;;4992840;28;20064;-74
2022/08/20 04:15:26;;;;;;;26.42;10.05;;;;;;;;;;4992727;28;20041;-73
2022/08/20 04:17:52;;;;;;;24.52;9.93;;;;;;;;;;4993159;28;20058;-73
2022/08/20 04:20:22;;;;;;;20.35;10.13;;;;;;;;;;4991546;28;20042;-74
2022/08/20 04:22:48;;;;;;;21.48;9.48;;;;;;;;;;4989808;28;20023;-73
2022/08/20 04:25:14;;;;;;;26.15;9.57;;;;;;;;;;4992290;28;20045;-73
2022/08/20 04:27:41;;;;;;;22.58;10.32;;;;;;;;;;4994749;28;20034;-74
2022/08/20 04:30:13;;;;;;;23.92;11.15;;;;;;;;;;4987430;28;20065;-73
2022/08/20 04:32:40;;;;;;;23.95;10.70;;;;;;;;;;4984612;28;20023;-79
2022/08/20 04:35:07;;;;;;;20.80;10.43;;;;;;;;;;4995494;28;20162;-78
2022/08/20 04:37:33;;;;;;;21.55;10.50;;;;;;;;;;4991347;28;20031;-76
2022/08/20 04:42:56;;;;;;;23.83;11.52;;;;;;;;;;4987649;28;20505;-73
2022/08/20 04:45:23;;;;;;;26.77;11.18;;;;;;;;;;4990914;28;20113;-75
2022/08/20 05:00:31;;;;;;;21.58;10.35;;;;;;;;;;5107351;27;20770;-73
2022/08/20 05:02:57;;;;;;;23.67;10.75;;;;;;;;;;5070688;28;20048;-72
2022/08/20 05:05:25;;;;;;;23.98;11.18;;;;;;;;;;5082730;28;20032;-71
2022/08/20 05:07:52;;;;;;;17.80;10.70;;;;;;;;;;5074435;28;20095;-72
2022/08/20 05:10:18;;;;;;;21.33;10.35;;;;;;;;;;5081025;28;20040;-72
2022/08/20 05:12:44;;;;;;;21.45;11.02;;;;;;;;;;5089096;28;20414;-71
2022/08/20 05:15:11;;;;;;;21.80;11.82;;;;;;;;;;5076650;28;20268;-74
2022/08/20 05:17:41;;;;;;;20.98;11.93;;;;;;;;;;5092295;28;20043;-75
2022/08/20 05:20:08;;;;;;;28.40;13.55;;;;;;;;;;5089064;28;20028;-77
2022/08/20 05:22:34;;;;;;;27.10;12.98;;;;;;;;;;5057313;28;20052;-72
2022/08/20 05:25:00;;;;;;;27.77;12.40;;;;;;;;;;5085202;28;20025;-71
2022/08/20 05:27:27;;;;;;;22.75;12.13;;;;;;;;;;5081544;28;20019;-70
2022/08/20 05:29:54;;;;;;;46.20;14.10;;;;;;;;;;5096543;28;20032;-72
2022/08/20 05:32:20;;;;;;;24.73;12.98;;;;;;;;;;5089001;28;20073;-71
2022/08/20 05:34:47;;;;;;;31.15;13.35;;;;;;;;;;5088358;28;20371;-71
2022/08/20 05:37:14;;;;;;;28.45;13.52;;;;;;;;;;5089936;28;20039;-71
2022/08/20 05:39:40;;;;;;;25.05;12.20;;;;;;;;;;5087252;28;20095;-70
2022/08/20 05:42:06;;;;;;;27.52;11.77;;;;;;;;;;5088846;28;20047;-70
2022/08/20 05:44:33;;;;;;;24.30;10.63;;;;;;;;;;5087041;28;20444;-70
2022/08/20 05:47:00;;;;;;;23.50;11.10;;;;;;;;;;5069833;28;20032;-70
2022/08/20 05:49:26;;;;;;;19.83;10.23;;;;;;;;;;5065044;28;20043;-72
2022/08/20 05:51:52;;;;;;;20.95;10.65;;;;;;;;;;5077620;28;20023;-69
2022/08/20 05:54:19;;;;;;;24.55;10.95;;;;;;;;;;5095857;28;20058;-70
2022/08/20 05:56:45;;;;;;;23.13;9.38;;;;;;;;;;5081983;28;20059;-69
2022/08/20 05:59:12;;;;;;;15.32;8.10;;;;;;;;;;5090021;28;20048;-71
2022/08/20 06:01:39;;;;;;;17.33;7.97;;;;;;;;;;5070466;28;20016;-70
2022/08/20 06:04:25;;;;;;;16.60;7.65;;;;;;;;;;5084102;28;20020;-70
2022/08/20 06:06:58;;;;;;;17.30;7.85;;;;;;;;;;5079072;28;20060;-70
2022/08/20 06:09:25;;;;;;;13.38;7.95;;;;;;;;;;5062823;28;20036;-72
2022/08/20 06:11:51;;;;;;;17.35;7.95;;;;;;;;;;5083877;28;20024;-71
2022/08/20 06:14:17;;;;;;;17.42;8.32;;;;;;;;;;5073195;28;20394;-72
2022/08/20 06:16:44;;;;;;;16.20;8.18;;;;;;;;;;5082429;28;20039;-70
2022/08/20 06:19:10;;;;;;;18.70;8.90;;;;;;;;;;5080725;28;20433;-70
2022/08/20 06:21:36;;;;;;;15.05;8.90;;;;;;;;;;5087905;28;20094;-71
2022/08/20 06:24:02;;;;;;;19.73;8.70;;;;;;;;;;5081222;28;20051;-72
2022/08/20 06:26:29;;;;;;;16.17;9.48;;;;;;;;;;5071659;28;20047;-71
2022/08/20 06:28:55;;;;;;;19.33;8.93;;;;;;;;;;5065765;28;20406;-70
2022/08/20 06:31:21;;;;;;;18.63;9.38;;;;;;;;;;5063578;28;20386;-71
2022/08/20 06:33:47;;;;;;;18.45;9.07;;;;;;;;;;5069263;28;20107;-72
2022/08/20 06:36:13;;;;;;;20.33;10.35;;;;;;;;;;5064332;28;20037;-69
2022/08/20 06:38:40;;;;;;;14.80;8.70;;;;;;;;;;5068298;28;20047;-70
2022/08/20 06:41:06;;;;;;;16.70;9.38;;;;;;;;;;5081572;28;20024;-69
2022/08/20 06:43:33;;;;;;;16.08;9.20;;;;;;;;;;5066463;28;20405;-70
2022/08/20 06:46:00;;;;;;;18.95;8.70;;;;;;;;;;5072097;28;20351;-72
2022/08/20 06:48:26;;;;;;;20.75;9.77;;;;;;;;;;5081268;28;20024;-71
2022/08/20 06:50:52;;;;;;;17.38;8.73;;;;;;;;;;5080126;28;20017;-75
2022/08/20 06:53:19;;;;;;;20.05;9.15;;;;;;;;;;5086588;28;20028;-72
2022/08/20 06:55:47;;;;;;;26.02;8.77;;;;;;;;;;5080283;28;20488;-71
2022/08/20 06:58:14;;;;;;;15.68;8.32;;;;;;;;;;5074815;28;20053;-74
2022/08/20 07:00:41;;;;;;;12.43;9.25;;;;;;;;;;5069738;28;20108;-74
2022/08/20 07:03:07;;;;;;;20.73;9.30;;;;;;;;;;5080003;28;20481;-70
2022/08/20 07:05:36;;;;;;;16.70;9.30;;;;;;;;;;5073826;28;20026;-70
2022/08/20 07:08:02;;;;;;;18.30;9.05;;;;;;;;;;5082578;28;20028;-72
2022/08/20 07:10:29;;;;;;;15.40;9.20;;;;;;;;;;5079968;28;20120;-73
2022/08/20 07:12:55;;;;;;;18.58;9.77;;;;;;;;;;5075092;28;20028;-71
2022/08/20 07:15:24;;;;;;;20.88;10.40;;;;;;;;;;5073041;28;20138;-69
2022/08/20 07:17:52;;;;;;;18.90;10.90;;;;;;;;;;5072600;28;20020;-71
2022/08/20 07:20:18;;;;;;;16.27;10.52;;;;;;;;;;5071163;28;20382;-70
2022/08/20 07:22:44;;;;;;;20.33;11.65;;;;;;;;;;5081457;28;20020;-70
2022/08/20 07:25:11;;;;;;;16.10;10.68;;;;;;;;;;5063584;28;20393;-74
2022/08/20 07:27:38;;;;;;;17.67;10.82;;;;;;;;;;5076276;28;20078;-75
2022/08/20 07:32:50;;;;;;;19.10;10.95;;;;;;;;;;5070810;28;20044;-80
2022/08/20 07:35:17;;;;;;;16.85;11.02;;;;;;;;;;5074248;28;20131;-78
2022/08/20 07:37:45;;;;;;;17.05;10.55;;;;;;;;;;5073187;28;20021;-82
2022/08/20 07:40:13;;;;;;;19.20;11.40;;;;;;;;;;5079656;28;20039;-79
2022/08/20 07:42:40;;;;;;;15.90;11.15;;;;;;;;;;5074987;28;20440;-79
2022/08/20 07:45:10;;;;;;;18.20;12.02;;;;;;;;;;5073826;28;20044;-79
2022/08/20 07:47:38;;;;;;;19.38;11.38;;;;;;;;;;5067474;28;20028;-77
2022/08/20 07:50:04;;;;;;;23.13;12.10;;;;;;;;;;5075940;28;20036;-81
2022/08/20 07:52:30;;;;;;;24.13;12.27;;;;;;;;;;5069597;28;20035;-87
2022/08/20 07:54:56;;;;;;;21.90;13.07;;;;;;;;;;5068254;28;20470;-84
2022/08/20 07:57:22;;;;;;;29.85;14.52;;;;;;;;;;5067312;28;20016;-80
2022/08/20 07:59:51;;;;;;;23.25;14.02;;;;;;;;;;5069435;28;20064;-78
2022/08/20 08:02:17;;;;;;;24.05;13.25;;;;;;;;;;5072199;28;20063;-78
2022/08/20 08:04:44;;;;;;;23.77;12.90;;;;;;;;;;5073974;28;20036;-78
2022/08/20 08:07:10;;;;;;;27.55;13.57;;;;;;;;;;5079069;28;20027;-78
2022/08/20 08:09:36;;;;;;;20.40;12.63;;;;;;;;;;5079636;28;20150;-78
2022/08/20 08:12:03;;;;;;;79.13;19.52;;;;;;;;;;5072932;28;20051;-75
2022/08/20 08:14:30;;;;;;;41.40;16.40;;;;;;;;;;5073687;28;20020;-76
2022/08/20 08:16:59;;;;;;;21.98;12.25;;;;;;;;;;5067605;28;20100;-77
2022/08/20 08:19:28;;;;;;;22.83;13.13;;;;;;;;;;5069437;28;20040;-78
2022/08/20 08:21:56;;;;;;;20.40;12.38;;;;;;;;;;5075144;28;20098;-77
2022/08/20 08:24:22;;;;;;;25.23;13.27;;;;;;;;;;5071786;28;20099;-76
2022/08/20 08:26:48;;;;;;;27.27;13.88;;;;;;;;;;5073341;28;20104;-77
2022/08/20 08:29:15;;;;;;;23.02;13.35;;;;;;;;;;5075636;28;20135;-80
2022/08/20 08:31:42;;;;;;;22.30;13.77;;;;;;;;;;5074253;28;20378;-81
2022/08/20 08:34:08;;;;;;;27.80;15.60;;;;;;;;;;5079072;28;20032;-79
2022/08/20 08:36:34;;;;;;;20.38;13.82;;;;;;;;;;5071335;28;20027;-77
2022/08/20 08:39:00;;;;;;;229.20;26.48;;;;;;;;;;5079231;28;20032;-78
2022/08/20 08:41:30;;;;;;;55.60;18.17;;;;;;;;;;5070802;28;20063;-76
2022/08/20 08:44:01;;;;;;;26.63;15.10;;;;;;;;;;5071144;28;20140;-76
2022/08/20 08:46:29;;;;;;;22.38;14.57;;;;;;;;;;5059574;28;20028;-76
2022/08/20 08:48:57;;;;;;;24.25;14.82;;;;;;;;;;5069225;28;20124;-77
2022/08/20 08:51:29;;;;;;;24.23;15.65;;;;;;;;;;5071362;28;20021;-76
2022/08/20 08:53:56;;;;;;;30.37;15.80;;;;;;;;;;5080653;28;20110;-73
2022/08/20 08:56:29;;;;;;;27.73;15.93;;;;;;;;;;5061736;28;20623;-77
2022/08/20 08:59:02;;;;;;;24.02;16.35;;;;;;;;;;5061833;28;20429;-77
2022/08/20 09:01:31;;;;;;;24.15;15.73;;;;;;;;;;5065534;28;20470;-76
2022/08/20 09:03:57;;;;;;;27.40;14.82;;;;;;;;;;5055308;28;20029;-76
2022/08/20 09:06:24;;;;;;;20.88;14.85;;;;;;;;;;5067422;28;20029;-77
2022/08/20 09:08:52;;;;;;;21.95;14.10;;;;;;;;;;5070860;28;20024;-77
2022/08/20 09:11:19;;;;;;;22.33;15.50;;;;;;;;;;5076380;28;20028;-74
2022/08/20 09:13:45;;;;;;;24.42;16.48;;;;;;;;;;5072349;28;20044;-80
2022/08/20 09:16:11;;;;;;;21.92;14.98;;;;;;;;;;5074456;28;20104;-77
2022/08/20 09:18:38;;;;;;;25.08;14.85;;;;;;;;;;5069384;28;20546;-79
2022/08/20 09:21:05;;;;;;;24.83;14.93;;;;;;;;;;5071161;28;20040;-79
2022/08/20 09:23:31;;;;;;;23.17;14.52;;;;;;;;;;5066183;28;20280;-78
2022/08/20 09:25:57;;;;;;;29.33;15.73;;;;;;;;;;5073124;28;20575;-76
2022/08/20 09:28:23;;;;;;;35.38;16.23;;;;;;;;;;5072611;28;20059;-75
2022/08/20 09:30:49;;;;;;;24.13;15.00;;;;;;;;;;5071018;28;20029;-73
2022/08/20 09:33:15;;;;;;;30.85;16.92;;;;;;;;;;5063326;28;20013;-74
2022/08/20 09:35:43;;;;;;;32.90;21.92;;;;;;;;;;5068926;28;20036;-72
2022/08/20 09:38:09;;;;;;;28.02;17.08;;;;;;;;;;5083532;28;20549;-72
2022/08/20 09:40:35;;;;;;;31.90;19.73;;;;;;;;;;5075262;28;20082;-72
2022/08/20 09:43:02;;;;;;;25.58;15.93;;;;;;;;;;5078910;28;20036;-74
2022/08/20 09:45:28;;;;;;;27.85;14.68;;;;;;;;;;5079979;28;20176;-72
2022/08/20 09:47:54;;;;;;;28.80;15.68;;;;;;;;;;5078329;28;20055;-72
2022/08/20 09:50:20;;;;;;;30.20;15.68;;;;;;;;;;5079216;28;20486;-75
2022/08/20 09:52:48;;;;;;;24.25;15.25;;;;;;;;;;5077958;28;20021;-72
2022/08/20 09:55:14;;;;;;;25.48;15.10;;;;;;;;;;5070917;28;20034;-74
2022/08/20 09:57:40;;;;;;;28.95;14.85;;;;;;;;;;5079197;28;20092;-74
2022/08/20 10:00:08;;;;;;;23.60;16.00;;;;;;;;;;5074958;28;20526;-74
2022/08/20 10:02:34;;;;;;;26.75;15.30;;;;;;;;;;5087078;28;20051;-71
2022/08/20 10:05:00;;;;;;;26.27;13.38;;;;;;;;;;5085302;28;20021;-72
2022/08/20 10:07:26;;;;;;;25.73;13.35;;;;;;;;;;5076713;28;20020;-74
2022/08/20 10:09:52;;;;;;;22.75;13.68;;;;;;;;;;5074722;28;20025;-74
2022/08/20 10:12:18;;;;;;;24.75;13.13;;;;;;;;;;5083118;28;20028;-73
2022/08/20 10:14:44;;;;;;;23.63;11.70;;;;;;;;;;5082382;28;20390;-72
2022/08/20 10:17:10;;;;;;;24.00;12.30;;;;;;;;;;5081060;28;20016;-74
2022/08/20 10:19:36;;;;;;;25.45;16.23;;;;;;;;;;5072360;28;20020;-72
2022/08/20 10:22:03;;;;;;;27.00;14.30;;;;;;;;;;5069569;28;20021;-73
2022/08/20 10:24:29;;;;;;;25.30;12.13;;;;;;;;;;5085390;28;20021;-73
2022/08/20 10:26:59;;;;;;;22.90;11.98;;;;;;;;;;5083821;28;20036;-72
2022/08/20 10:29:26;;;;;;;23.00;13.35;;;;;;;;;;5076654;28;20412;-71
2022/08/20 10:31:52;;;;;;;27.65;12.45;;;;;;;;;;5083727;28;20016;-73
2022/08/20 10:34:18;;;;;;;21.38;11.80;;;;;;;;;;5089649;28;20473;-74
2022/08/20 10:36:45;;;;;;;25.70;12.60;;;;;;;;;;5078994;28;20028;-75
2022/08/20 10:39:11;;;;;;;24.45;12.57;;;;;;;;;;5065106;28;20038;-74
2022/08/20 10:41:37;;;;;;;24.52;12.18;;;;;;;;;;5071234;28;20086;-70
2022/08/20 10:44:04;;;;;;;22.75;12.13;;;;;;;;;;5078794;28;20035;-74
2022/08/20 10:46:30;;;;;;;19.75;12.07;;;;;;;;;;5067845;28;20028;-76
2022/08/20 10:48:56;;;;;;;24.08;13.35;;;;;;;;;;5078436;28;20036;-76
2022/08/20 10:51:22;;;;;;;19.55;10.30;;;;;;;;;;5072154;28;20095;-74
2022/08/20 10:53:48;;;;;;;20.50;10.35;;;;;;;;;;5075891;28;20119;-74
2022/08/20 10:56:14;;;;;;;26.02;11.77;;;;;;;;;;5075577;28;20041;-77
2022/08/20 10:58:40;;;;;;;19.13;10.00;;;;;;;;;;5070222;28;20071;-80
2022/08/20 11:01:07;;;;;;;22.55;10.73;;;;;;;;;;5069614;28;20032;-78
2022/08/20 11:03:33;;;;;;;24.90;11.40;;;;;;;;;;5073304;28;20048;-80
2022/08/20 11:05:59;;;;;;;23.95;11.55;;;;;;;;;;5068414;28;20416;-78
2022/08/20 11:08:25;;;;;;;22.80;11.10;;;;;;;;;;5071584;28;20033;-79
2022/08/20 11:10:52;;;;;;;24.35;10.38;;;;;;;;;;5078703;28;20099;-80
2022/08/20 11:13:18;;;;;;;22.77;11.05;;;;;;;;;;5073237;28;20428;-82
2022/08/20 11:15:44;;;;;;;20.77;10.35;;;;;;;;;;5074777;28;20040;-76
2022/08/20 11:18:11;;;;;;;20.00;9.98;;;;;;;;;;5080608;28;20393;-76
2022/08/20 11:20:38;;;;;;;23.80;10.98;;;;;;;;;;5068338;28;20104;-78
2022/08/20 11:23:04;;;;;;;28.45;10.77;;;;;;;;;;5077594;28;20389;-77
2022/08/20 11:25:30;;;;;;;26.52;10.93;;;;;;;;;;5078282;28;20020;-75
2022/08/20 11:27:57;;;;;;;26.65;11.65;;;;;;;;;;5079530;28;20070;-76
2022/08/20 11:30:24;;;;;;;23.17;10.32;;;;;;;;;;5071785;28;20493;-74
2022/08/20 11:32:51;;;;;;;24.25;11.13;;;;;;;;;;5072594;28;20024;-78
2022/08/20 11:35:18;;;;;;;21.77;10.30;;;;;;;;;;5061994;28;20025;-75
2022/08/20 11:37:44;;;;;;;18.90;10.15;;;;;;;;;;5082547;28;20024;-76
2022/08/20 11:40:13;;;;;;;25.88;10.75;;;;;;;;;;5068331;28;20079;-75
2022/08/20 11:42:39;;;;;;;20.52;10.07;;;;;;;;;;5073107;28;20032;-74
2022/08/20 11:45:06;;;;;;;21.17;10.45;;;;;;;;;;5078636;28;20028;-74
2022/08/20 11:47:36;;;;;;;28.10;12.60;;;;;;;;;;5075630;28;20087;-75
2022/08/20 11:50:09;;;;;;;27.98;11.45;;;;;;;;;;5070625;28;20898;-75
2022/08/20 11:52:35;;;;;;;20.67;10.65;;;;;;;;;;5067029;28;20070;-73
2022/08/20 11:55:02;;;;;;;21.38;10.73;;;;;;;;;;5069480;28;20032;-73
2022/08/20 11:57:31;;;;;;;21.90;11.38;;;;;;;;;;5072432;28;20052;-73
2022/08/20 11:59:58;;;;;;;22.00;10.68;;;;;;;;;;5076845;28;20055;-76
2022/08/20 12:02:24;;;;;;;21.38;10.93;;;;;;;;;;5075716;28;20097;-76
2022/08/20 12:04:50;;;;;;;22.17;11.15;;;;;;;;;;5070248;28;20029;-81
2022/08/20 12:07:18;;;;;;;22.95;10.00;;;;;;;;;;5069648;28;20025;-73
2022/08/20 12:09:45;;;;;;;20.80;10.88;;;;;;;;;;5063228;28;20058;-76
2022/08/20 12:12:11;;;;;;;18.52;10.27;;;;;;;;;;5073859;28;20024;-72
2022/08/20 12:14:37;;;;;;;25.42;11.10;;;;;;;;;;5067204;28;20033;-74
2022/08/20 12:17:11;;;;;;;22.02;11.25;;;;;;;;;;5073695;28;20485;-77
2022/08/20 12:19:41;;;;;;;24.15;11.20;;;;;;;;;;5070242;28;20028;-75
2022/08/20 12:22:08;;;;;;;20.98;10.60;;;;;;;;;;5068791;28;20055;-76
2022/08/20 12:24:34;;;;;;;24.80;10.98;;;;;;;;;;5078250;28;20032;-75
2022/08/20 12:27:10;;;;;;;23.10;10.48;;;;;;;;;;5074985;28;20028;-75
2022/08/20 12:29:40;;;;;;;25.77;10.93;;;;;;;;;;5069728;28;20127;-75
2022/08/20 12:32:06;;;;;;;21.42;11.70;;;;;;;;;;5064405;28;20474;-75
2022/08/20 12:34:33;;;;;;;21.45;10.60;;;;;;;;;;5068180;28;20079;-71
2022/08/20 12:37:20;;;;;;;22.33;11.23;;;;;;;;;;5060559;28;20025;-74
2022/08/20 12:39:48;;;;;;;22.33;10.57;;;;;;;;;;5056796;28;20025;-73
2022/08/20 12:42:14;;;;;;;23.83;10.88;;;;;;;;;;5065729;28;20425;-74
2022/08/20 12:44:40;;;;;;;14.55;10.18;;;;;;;;;;5064408;28;20119;-71
2022/08/20 12:47:15;;;;;;;23.08;10.63;;;;;;;;;;5080646;28;20032;-71
2022/08/20 12:49:45;;;;;;;20.17;11.13;;;;;;;;;;5072238;28;20036;-73
2022/08/20 12:52:13;;;;;;;21.90;10.77;;;;;;;;;;5066523;28;20021;-74
2022/08/20 12:54:39;;;;;;;20.58;11.77;;;;;;;;;;5073960;28;20497;-71
2022/08/20 12:57:06;;;;;;;25.60;11.57;;;;;;;;;;5070390;28;20434;-75
2022/08/20 12:59:32;;;;;;;22.20;12.75;;;;;;;;;;5069714;28;20144;-71
2022/08/20 13:01:58;;;;;;;24.60;12.07;;;;;;;;;;5066782;28;20478;-75
2022/08/20 13:04:37;;;;;;;18.30;11.68;;;;;;;;;;5079598;28;20055;-74
2022/08/20 13:10:04;;;;;;;21.23;10.85;;;;;;;;;;5032427;28;20041;-73
2022/08/20 13:12:30;;;;;;;20.50;11.35;;;;;;;;;;5041732;28;20121;-72
2022/08/20 13:14:56;;;;;;;21.00;11.90;;;;;;;;;;5035741;28;20611;-72
2022/08/20 13:17:22;;;;;;;21.83;12.73;;;;;;;;;;5035688;28;20473;-72
2022/08/20 13:19:48;;;;;;;20.65;11.40;;;;;;;;;;5031103;28;20037;-72
2022/08/20 13:22:14;;;;;;;26.67;11.57;;;;;;;;;;5033506;28;20033;-74
2022/08/20 13:24:40;;;;;;;23.83;11.73;;;;;;;;;;5030482;28;20411;-73
2022/08/20 13:27:17;;;;;;;26.17;13.00;;;;;;;;;;5033002;28;20041;-76
2022/08/20 13:29:49;;;;;;;25.05;14.07;;;;;;;;;;5019964;28;20046;-72
2022/08/20 13:32:16;;;;;;;22.55;13.98;;;;;;;;;;5031071;28;20041;-72
2022/08/20 13:34:43;;;;;;;20.08;13.07;;;;;;;;;;5032835;28;20050;-72
2022/08/20 13:37:13;;;;;;;21.60;13.45;;;;;;;;;;5033128;28;20025;-76
2022/08/20 13:39:40;;;;;;;26.23;14.00;;;;;;;;;;5032403;28;20456;-77
2022/08/20 13:42:06;;;;;;;25.55;14.13;;;;;;;;;;5033178;28;20522;-74
2022/08/20 13:44:33;;;;;;;28.55;13.90;;;;;;;;;;5033492;28;20030;-72
2022/08/20 13:46:59;;;;;;;25.20;14.90;;;;;;;;;;5085201;28;20047;-75
2022/08/20 13:49:25;;;;;;;22.98;13.43;;;;;;;;;;5081537;28;20070;-76
2022/08/20 13:51:51;;;;;;;20.95;13.38;;;;;;;;;;5071462;28;20028;-75
2022/08/20 13:54:17;;;;;;;31.98;14.23;;;;;;;;;;5078027;28;20032;-74
2022/08/20 13:56:43;;;;;;;24.23;13.60;;;;;;;;;;5080842;28;20063;-76
2022/08/20 13:59:09;;;;;;;27.13;14.77;;;;;;;;;;5075488;28;20506;-78
2022/08/20 14:01:35;;;;;;;21.83;14.38;;;;;;;;;;5079610;28;20075;-79
2022/08/20 14:04:01;;;;;;;27.58;14.63;;;;;;;;;;5074321;28;20032;-76
2022/08/20 14:06:27;;;;;;;24.02;13.98;;;;;;;;;;5079811;28;20110;-78
2022/08/20 14:08:53;;;;;;;20.75;13.73;;;;;;;;;;5077039;28;20075;-73
2022/08/20 14:11:20;;;;;;;24.27;13.68;;;;;;;;;;5080267;28;20031;-72
2022/08/20 14:13:46;;;;;;;23.65;14.07;;;;;;;;;;5072453;28;20056;-76
2022/08/20 14:16:15;;;;;;;25.88;13.30;;;;;;;;;;5075064;28;20115;-82
2022/08/20 14:18:41;;;;;;;21.52;14.50;;;;;;;;;;5077357;28;20024;-74
2022/08/20 14:21:07;;;;;;;27.38;14.93;;;;;;;;;;5065349;28;20032;-73
2022/08/20 14:23:33;;;;;;;27.80;15.38;;;;;;;;;;5088122;28;20025;-72
2022/08/20 14:25:59;;;;;;;26.80;15.77;;;;;;;;;;5067075;28;20021;-74
2022/08/20 14:28:25;;;;;;;24.08;15.48;;;;;;;;;;5086018;28;20043;-82
2022/08/20 14:30:51;;;;;;;29.33;16.15;;;;;;;;;;5076480;28;20532;-73
2022/08/20 14:33:17;;;;;;;27.88;15.10;;;;;;;;;;5076190;28;20021;-73
2022/08/20 14:35:43;;;;;;;37.17;16.42;;;;;;;;;;5074520;28;20020;-75
2022/08/20 14:38:09;;;;;;;29.35;15.52;;;;;;;;;;5073467;28;20029;-74
2022/08/20 14:40:36;;;;;;;28.38;16.05;;;;;;;;;;5074175;28;20482;-76
2022/08/20 14:43:02;;;;;;;25.10;14.18;;;;;;;;;;5069252;28;20025;-80